createdAt,value
2022-12-28T00:01:58.909Z,-0.40
2022-12-28T00:06:08.974Z,-0.40
2022-12-28T00:10:12.030Z,-0.50
2022-12-28T00:14:15.082Z,-0.50
2022-12-28T00:18:18.407Z,-0.40
2022-12-28T00:22:22.973Z,-0.20
2022-12-28T00:26:27.821Z,-0.20
2022-12-28T00:30:35.907Z,-0.20
2022-12-28T00:35:09.626Z,-0.30
2022-12-28T00:39:14.075Z,-0.30
2022-12-28T00:43:51.135Z,-0.30
2022-12-28T00:47:54.230Z,-0.30
2022-12-28T00:52:28.306Z,-0.30
2022-12-28T00:56:32.797Z,-0.30
2022-12-28T01:01:07.262Z,-0.30
2022-12-28T01:05:43.946Z,-0.20
2022-12-28T01:09:47.035Z,-0.10
2022-12-28T01:13:53.530Z,0.00
2022-12-28T01:17:56.572Z,0.10
2022-12-28T01:22:39.130Z,0.10
2022-12-28T01:26:46.730Z,0.20
2022-12-28T01:31:25.146Z,0.30
2022-12-28T01:35:29.633Z,0.40
2022-12-28T01:40:14.848Z,0.30
2022-12-28T01:44:45.885Z,0.30
2022-12-28T01:49:16.370Z,0.30
2022-12-28T01:53:21.184Z,0.30
2022-12-28T01:57:28.431Z,0.20
2022-12-28T02:02:11.330Z,0.10
2022-12-28T02:06:16.191Z,0.10
2022-12-28T02:10:58.829Z,0.00
2022-12-28T02:15:03.443Z,-0.20
2022-12-28T02:19:40.473Z,-0.20
2022-12-28T02:24:14.514Z,-0.30
2022-12-28T02:28:45.179Z,-0.40
2022-12-28T02:32:58.148Z,-0.50
2022-12-28T02:37:27.081Z,-0.40
2022-12-28T02:41:32.214Z,-0.40
2022-12-28T02:45:57.660Z,-0.30
2022-12-28T02:50:07.425Z,-0.40
2022-12-28T02:55:11.040Z,-0.40
2022-12-28T02:59:39.418Z,-0.30
2022-12-28T03:03:58.739Z,-0.20
2022-12-28T03:08:23.016Z,-0.10
2022-12-28T03:12:32.273Z,0.00
2022-12-28T03:17:03.001Z,0.00
2022-12-28T03:21:28.885Z,0.10
2022-12-28T03:25:54.356Z,0.10
2022-12-28T03:30:19.877Z,0.10
2022-12-28T03:34:26.006Z,0.10
2022-12-28T03:38:40.765Z,0.20
2022-12-28T03:43:04.960Z,0.20
2022-12-28T03:47:11.780Z,0.30
2022-12-28T03:51:20.463Z,0.40
2022-12-28T03:55:29.093Z,0.40
2022-12-28T03:59:32.607Z,0.40
2022-12-28T04:03:36.927Z,0.40
2022-12-28T04:07:42.258Z,0.40
2022-12-28T04:11:46.956Z,0.40
2022-12-28T04:16:00.979Z,0.40
2022-12-28T04:20:11.977Z,0.30
2022-12-28T04:24:17.469Z,0.30
2022-12-28T04:28:24.452Z,0.30
2022-12-28T04:32:27.794Z,0.20
2022-12-28T04:36:30.868Z,0.30
2022-12-28T04:40:34.234Z,0.30
2022-12-28T04:44:39.204Z,0.20
2022-12-28T04:48:43.219Z,0.10
2022-12-28T04:52:49.373Z,0.00
2022-12-28T04:56:52.508Z,0.00
2022-12-28T05:01:04.114Z,0.10
2022-12-28T05:05:07.880Z,0.10
2022-12-28T05:09:14.026Z,0.20
2022-12-28T05:13:19.818Z,0.20
2022-12-28T05:17:24.228Z,0.30
2022-12-28T05:21:30.879Z,0.30
2022-12-28T05:25:34.248Z,0.30
2022-12-28T05:29:37.407Z,0.40
2022-12-28T05:33:42.560Z,0.40
2022-12-28T05:37:49.428Z,0.50
2022-12-28T05:41:52.546Z,0.70
2022-12-28T05:45:56.131Z,0.80
2022-12-28T05:50:01.383Z,0.80
2022-12-28T05:54:08.554Z,0.90
2022-12-28T05:58:22.238Z,1.00
2022-12-28T06:02:27.840Z,1.20
2022-12-28T06:06:34.812Z,1.20
2022-12-28T06:10:40.905Z,1.20
2022-12-28T06:14:45.759Z,1.20
2022-12-28T06:18:49.498Z,1.20
2022-12-28T06:22:53.908Z,1.20
2022-12-28T06:26:58.520Z,1.30
2022-12-28T06:31:05.836Z,1.30
2022-12-28T06:35:12.229Z,1.30
2022-12-28T06:39:19.598Z,1.40
2022-12-28T06:43:24.847Z,1.50
2022-12-28T06:47:33.130Z,1.50
2022-12-28T06:51:41.528Z,1.60
2022-12-28T06:55:56.640Z,1.60
2022-12-28T06:59:59.770Z,1.70
2022-12-28T07:04:07.969Z,1.80
2022-12-28T07:08:12.924Z,1.80
2022-12-28T07:12:20.454Z,1.80
2022-12-28T07:20:38.596Z,1.80
2022-12-28T07:24:45.535Z,1.80
2022-12-28T07:28:51.371Z,1.80
2022-12-28T07:32:54.492Z,1.80
2022-12-28T07:36:58.234Z,1.80
2022-12-28T07:41:08.711Z,1.80
2022-12-28T07:45:17.618Z,1.80
2022-12-28T07:49:23.410Z,1.80
2022-12-28T07:54:21.144Z,1.80
2022-12-28T07:58:57.843Z,1.80
2022-12-28T08:03:55.657Z,1.90
2022-12-28T08:08:03.911Z,2.00
2022-12-28T08:12:10.025Z,2.20
2022-12-28T08:16:44.652Z,2.40
2022-12-28T08:21:20.329Z,2.50
2022-12-28T08:25:24.723Z,2.60
2022-12-28T08:29:27.821Z,2.70
2022-12-28T08:34:19.841Z,2.80
2022-12-28T08:38:42.768Z,2.80
2022-12-28T08:42:47.449Z,2.90
2022-12-28T08:47:24.030Z,3.00
2022-12-28T08:52:00.823Z,3.10
2022-12-28T08:56:38.398Z,3.30
2022-12-28T09:01:18.580Z,3.60
2022-12-28T09:05:54.284Z,3.80
2022-12-28T09:09:59.574Z,4.00
2022-12-28T09:14:35.933Z,4.10
2022-12-28T09:19:10.152Z,4.10
2022-12-28T09:23:49.663Z,4.20
2022-12-28T09:27:59.467Z,4.30
2022-12-28T09:32:02.778Z,4.40
2022-12-28T09:36:40.413Z,4.30
2022-12-28T09:40:44.931Z,4.40
2022-12-28T09:45:00.688Z,4.30
2022-12-28T09:49:27.563Z,4.20
2022-12-28T09:53:36.491Z,4.20
2022-12-28T09:58:16.549Z,4.20
2022-12-28T10:02:30.294Z,4.20
2022-12-28T10:06:36.884Z,4.20
2022-12-28T10:11:10.677Z,4.20
2022-12-28T10:15:49.806Z,4.20
2022-12-28T10:19:54.957Z,4.20
2022-12-28T10:24:32.972Z,4.20
2022-12-28T10:29:05.428Z,4.20
2022-12-28T10:33:16.886Z,4.20
2022-12-28T10:37:45.699Z,4.30
2022-12-28T10:42:27.359Z,4.30
2022-12-28T10:46:57.300Z,4.40
2022-12-28T10:51:12.590Z,4.50
2022-12-28T10:55:39.917Z,4.60
2022-12-28T11:00:13.741Z,4.70
2022-12-28T11:04:19.844Z,5.00
2022-12-28T11:08:25.756Z,5.20
2022-12-28T11:13:02.000Z,5.60
2022-12-28T11:17:38.768Z,5.90
2022-12-28T11:22:14.629Z,6.20
2022-12-28T11:26:48.486Z,6.40
2022-12-28T11:31:40.359Z,6.60
2022-12-28T11:36:06.960Z,6.70
2022-12-28T11:40:50.610Z,6.70
2022-12-28T11:45:43.072Z,6.80
2022-12-28T11:50:23.439Z,7.10
2022-12-28T11:55:01.832Z,7.20
2022-12-28T11:59:38.075Z,7.10
2022-12-28T12:04:20.042Z,7.10
2022-12-28T12:14:00.621Z,7.50
2022-12-28T12:18:40.456Z,7.60
2022-12-28T12:23:19.399Z,7.60
2022-12-28T12:27:49.975Z,7.70
2022-12-28T12:32:03.217Z,7.80
2022-12-28T12:36:41.270Z,7.90
2022-12-28T12:41:09.888Z,8.00
2022-12-28T12:45:48.065Z,8.00
2022-12-28T12:50:25.970Z,8.10
2022-12-28T12:54:40.906Z,8.20
2022-12-28T12:59:18.736Z,8.30
2022-12-28T13:03:36.434Z,8.50
2022-12-28T13:08:34.211Z,8.60
2022-12-28T13:12:42.315Z,8.80
2022-12-28T13:17:16.923Z,8.90
2022-12-28T13:21:22.497Z,9.00
2022-12-28T13:25:30.721Z,9.20
2022-12-28T13:29:40.150Z,9.30
2022-12-28T13:33:43.352Z,9.40
2022-12-28T13:38:22.827Z,9.40
2022-12-28T13:42:33.880Z,9.30
2022-12-28T13:47:08.037Z,9.30
2022-12-28T13:51:13.756Z,9.30
2022-12-28T13:55:22.145Z,9.20
2022-12-28T13:59:59.638Z,9.10
2022-12-28T14:04:50.741Z,9.10
2022-12-28T14:08:34.208Z,9.00
2022-12-28T14:13:06.692Z,8.90
2022-12-28T14:17:12.554Z,8.80
2022-12-28T14:21:17.039Z,8.80
2022-12-28T14:25:24.608Z,8.70
2022-12-28T14:29:31.585Z,8.60
2022-12-28T14:34:06.380Z,8.50
2022-12-28T14:38:20.045Z,8.30
2022-12-28T14:42:27.527Z,8.20
2022-12-28T14:46:36.518Z,8.20
2022-12-28T14:51:24.541Z,8.20
2022-12-28T14:55:44.559Z,8.10
2022-12-28T14:59:52.075Z,8.10
2022-12-28T15:04:30.294Z,8.10
2022-12-28T15:08:33.475Z,8.10
2022-12-28T15:12:41.022Z,8.00
2022-12-28T15:16:44.098Z,7.90
2022-12-28T15:20:47.427Z,7.80
2022-12-28T15:24:52.341Z,7.70
2022-12-28T15:29:47.809Z,7.50
2022-12-28T15:33:57.519Z,7.40
2022-12-28T15:38:02.596Z,7.20
2022-12-28T15:42:05.768Z,7.00
2022-12-28T15:46:52.933Z,6.70
2022-12-28T15:50:56.257Z,6.50
2022-12-28T15:54:59.916Z,6.30
2022-12-28T15:59:04.864Z,6.20
2022-12-28T16:03:09.354Z,6.10
2022-12-28T16:07:12.495Z,5.90
2022-12-28T16:11:17.623Z,5.80
2022-12-28T16:15:56.632Z,5.60
2022-12-28T16:20:01.208Z,5.50
2022-12-28T16:24:04.475Z,5.50
2022-12-28T16:28:38.324Z,5.50
2022-12-28T16:32:42.549Z,5.50
2022-12-28T16:36:48.446Z,5.50
2022-12-28T16:40:52.542Z,5.50
2022-12-28T16:44:55.582Z,5.50
2022-12-28T16:49:03.240Z,5.40
2022-12-28T16:53:08.059Z,5.30
2022-12-28T16:57:41.973Z,5.30
2022-12-28T17:02:19.050Z,5.10
2022-12-28T17:06:32.266Z,5.10
2022-12-28T17:10:36.703Z,5.10
2022-12-28T17:14:42.989Z,5.10
2022-12-28T17:19:17.057Z,5.10
2022-12-28T17:23:20.112Z,5.10
2022-12-28T17:27:24.535Z,5.10
2022-12-28T17:31:58.573Z,5.10
2022-12-28T17:36:03.631Z,5.10
2022-12-28T17:40:08.139Z,5.00
2022-12-28T17:44:49.704Z,4.90
2022-12-28T17:49:17.637Z,4.70
2022-12-28T17:53:22.831Z,4.60
2022-12-28T17:57:56.725Z,4.50
2022-12-28T18:02:05.115Z,4.30
2022-12-28T18:06:36.003Z,4.20
2022-12-28T18:11:17.617Z,4.00
2022-12-28T18:15:20.673Z,3.80
2022-12-28T18:19:25.637Z,3.60
2022-12-28T18:23:30.826Z,3.50
2022-12-28T18:28:04.623Z,3.40
2022-12-28T18:32:41.388Z,3.40
2022-12-28T18:37:22.056Z,3.50
2022-12-28T18:41:55.973Z,3.50
2022-12-28T18:46:33.413Z,3.60
2022-12-28T18:51:09.410Z,3.60
2022-12-28T18:55:45.779Z,3.60
2022-12-28T19:00:23.127Z,3.60
2022-12-28T19:05:00.503Z,3.60
2022-12-28T19:09:59.933Z,3.50
2022-12-28T19:14:57.756Z,3.50
2022-12-28T19:19:39.291Z,3.40
2022-12-28T19:24:14.648Z,3.30
2022-12-28T19:28:48.855Z,3.20
2022-12-28T19:33:27.639Z,3.10
2022-12-28T19:38:10.638Z,2.90
2022-12-28T19:42:38.295Z,2.90
2022-12-28T19:46:43.179Z,3.00
2022-12-28T19:50:48.939Z,3.00
2022-12-28T19:55:24.049Z,3.00
2022-12-28T19:59:59.998Z,3.00
2022-12-28T20:04:34.111Z,2.90
2022-12-28T20:09:08.176Z,3.00
2022-12-28T20:13:50.414Z,3.10
2022-12-28T20:18:21.104Z,3.10
2022-12-28T20:22:27.393Z,3.20
2022-12-28T20:27:01.435Z,3.20
2022-12-28T20:31:37.809Z,3.10
2022-12-28T20:36:18.507Z,3.20
2022-12-28T20:40:49.096Z,3.10
2022-12-28T20:45:27.483Z,3.10
2022-12-28T20:50:06.253Z,3.10
2022-12-28T20:54:42.436Z,3.20
2022-12-28T20:58:48.545Z,3.30
2022-12-28T21:03:31.404Z,3.40
2022-12-28T21:08:03.457Z,3.40
2022-12-28T21:12:08.128Z,3.40
2022-12-28T21:17:06.093Z,3.40
2022-12-28T21:21:15.809Z,3.20
2022-12-28T21:25:44.898Z,3.10
2022-12-28T21:30:18.583Z,3.00
2022-12-28T21:34:55.307Z,2.80
2022-12-28T21:39:32.308Z,2.70
2022-12-28T21:43:38.147Z,2.70
2022-12-28T21:48:16.658Z,2.50
2022-12-28T21:52:21.631Z,2.50
2022-12-28T21:56:25.015Z,2.50
2022-12-28T22:01:20.906Z,2.50
2022-12-28T22:05:41.326Z,2.60
2022-12-28T22:10:05.181Z,2.60
2022-12-28T22:14:11.336Z,2.70
2022-12-28T22:22:56.829Z,2.70
2022-12-28T22:27:01.921Z,2.70
2022-12-28T22:31:07.713Z,2.70
2022-12-28T22:35:15.441Z,2.80
2022-12-28T22:39:46.386Z,2.80
2022-12-28T22:43:54.591Z,2.80
2022-12-28T22:48:00.565Z,2.80
2022-12-28T22:52:39.741Z,2.80
2022-12-28T22:56:42.862Z,2.80
2022-12-28T23:01:21.762Z,2.80
2022-12-28T23:05:27.931Z,2.70
2022-12-28T23:10:07.071Z,2.70
2022-12-28T23:14:31.050Z,2.80
2022-12-28T23:18:53.542Z,2.80
2022-12-28T23:23:14.313Z,2.80
2022-12-28T23:27:37.424Z,2.80
2022-12-28T23:31:42.728Z,2.90
2022-12-28T23:35:46.294Z,3.00
2022-12-28T23:39:52.044Z,3.00
2022-12-28T23:43:59.379Z,3.10
2022-12-28T23:48:04.858Z,3.10
2022-12-28T23:52:09.597Z,3.20
2022-12-28T23:56:12.696Z,3.20
